Time;durP1;ratioP1;P1;durP2;ratioP2;P2;SDS_P1;SDS_P2;PMS_P1;PMS_P2;Temp;Humidity;BMP_temperature;BMP_pressure;BME280_temperature;BME280_humidity;BME280_pressure;Samples;Min_cycle;Max_cycle;Signal;HPM_P1;HPM_P2
2022/09/16 00:02:04;;;;;;;8.28;5.70;;;;;;;15.14;100.00;98582.80;1794143;80;20996;-68
2022/09/16 00:04:31;;;;;;;6.30;5.35;;;;;;;15.14;100.00;98580.15;1794033;80;21310;-67
2022/09/16 00:06:58;;;;;;;6.62;5.70;;;;;;;15.12;100.00;98582.08;1791865;80;21037;-67
2022/09/16 00:09:25;;;;;;;8.63;5.60;;;;;;;15.09;100.00;98583.17;1762493;81;21028;-66
2022/09/16 00:11:52;;;;;;;7.10;5.92;;;;;;;15.07;100.00;98581.61;1762630;81;21029;-67
2022/09/16 00:14:19;;;;;;;6.78;6.03;;;;;;;15.05;100.00;98575.59;1762552;81;21065;-66
2022/09/16 00:16:46;;;;;;;8.45;6.60;;;;;;;15.02;100.00;98578.46;1762649;81;21127;-67
2022/09/16 00:19:12;;;;;;;7.50;6.42;;;;;;;15.02;100.00;98567.86;1762707;81;21037;-69
2022/09/16 00:21:39;;;;;;;10.00;7.05;;;;;;;15.00;100.00;98570.66;1779786;80;21567;-67
2022/09/16 00:24:06;;;;;;;7.97;6.75;;;;;;;15.00;100.00;98569.78;1794033;80;21529;-68
2022/09/16 00:26:33;;;;;;;8.03;6.70;;;;;;;14.98;100.00;98577.88;1794147;80;21110;-66
2022/09/16 00:29:00;;;;;;;7.97;6.97;;;;;;;14.94;100.00;98575.11;1793865;80;21954;-67
2022/09/16 00:31:26;;;;;;;8.28;7.15;;;;;;;14.92;100.00;98576.20;1793972;80;21670;-67
2022/09/16 00:33:53;;;;;;;8.05;6.97;;;;;;;14.89;100.00;98577.29;1793230;80;21045;-67
2022/09/16 00:36:19;;;;;;;7.72;6.92;;;;;;;14.87;100.00;98572.59;1793711;80;21072;-66
2022/09/16 00:38:53;;;;;;;10.63;7.67;;;;;;;14.86;100.00;98571.75;1794223;80;21036;-65
2022/09/16 00:41:24;;;;;;;8.23;7.10;;;;;;;14.83;100.00;98561.37;1793834;80;21207;-66
2022/09/16 00:44:02;;;;;;;8.35;6.60;;;;;;;14.82;100.00;98563.67;1794131;80;21056;-67
2022/09/16 00:46:40;;;;;;;9.13;7.05;;;;;;;14.83;100.00;98563.19;1793860;80;21041;-68
2022/09/16 00:49:17;;;;;;;10.28;8.00;;;;;;;14.84;100.00;98568.37;1793336;79;21056;-68
2022/09/16 00:51:46;;;;;;;9.15;7.33;;;;;;;14.82;100.00;98572.95;1796867;79;21138;-67
2022/09/16 00:54:13;;;;;;;11.10;8.65;;;;;;;14.80;100.00;98574.88;1792771;79;21619;-67
2022/09/16 00:56:41;;;;;;;9.65;7.80;;;;;;;14.79;100.00;98570.56;1765219;81;21060;-67
2022/09/16 00:59:16;;;;;;;11.50;8.75;;;;;;;14.75;100.00;98574.90;1765454;81;21100;-66
2022/09/16 01:01:43;;;;;;;12.20;8.33;;;;;;;14.76;100.00;98584.03;1765461;79;21619;-67
2022/09/16 01:04:17;;;;;;;11.10;8.93;;;;;;;14.76;100.00;98589.33;1765525;81;21750;-67
2022/09/16 01:06:44;;;;;;;15.68;9.28;;;;;;;14.74;100.00;98593.06;1765309;81;21174;-67
2022/09/16 01:09:11;;;;;;;13.70;8.90;;;;;;;14.71;100.00;98595.97;1765614;81;21160;-68
2022/09/16 01:11:37;;;;;;;15.28;9.85;;;;;;;14.68;100.00;98599.70;1765454;81;21045;-68
2022/09/16 01:17:06;;;;;;;17.40;11.03;;;;;;;14.66;100.00;98596.33;1765955;81;21040;-68
2022/09/16 01:20:03;;;;;;;15.18;11.95;;;;;;;14.65;100.00;98593.30;1751027;81;21275;-67
2022/09/16 01:22:38;;;;;;;16.95;12.10;;;;;;;14.64;100.00;98591.14;1765293;81;21081;-67
2022/09/16 01:25:26;;;;;;;21.45;12.90;;;;;;;14.62;100.00;98586.93;1765401;81;21081;-67
2022/09/16 01:28:04;;;;;;;20.05;12.70;;;;;;;14.60;100.00;98600.77;1765257;81;21592;-66
2022/09/16 01:30:57;;;;;;;20.65;12.75;;;;;;;14.57;100.00;98594.40;1765463;81;21048;-66
2022/09/16 01:33:48;;;;;;;18.85;13.10;;;;;;;14.59;100.00;98604.40;1765451;81;21620;-68
2022/09/16 01:36:35;;;;;;;17.37;13.78;;;;;;;14.57;100.00;98599.70;1765416;81;29445;-67
2022/09/16 01:39:10;;;;;;;18.45;14.15;;;;;;;14.56;100.00;98600.64;1764321;81;21030;-67
2022/09/16 01:41:45;;;;;;;20.45;13.55;;;;;;;14.55;100.00;98600.30;1762505;81;21052;-68
2022/09/16 01:44:32;;;;;;;17.50;12.63;;;;;;;14.55;100.00;98601.62;1765405;81;21592;-65
2022/09/16 01:47:17;;;;;;;17.90;13.10;;;;;;;14.54;100.00;98603.85;1748931;81;21246;-66
2022/09/16 01:49:56;;;;;;;19.92;14.55;;;;;;;14.53;100.00;98607.48;1764759;81;21080;-67
2022/09/16 01:52:55;;;;;;;19.10;14.07;;;;;;;14.52;100.00;98611.11;1762687;81;21025;-68
2022/09/16 01:55:44;;;;;;;19.37;14.90;;;;;;;14.51;100.00;98612.05;1781865;80;21106;-68
2022/09/16 01:58:28;;;;;;;19.82;13.72;;;;;;;14.50;100.00;98615.19;1793852;80;21104;-67
2022/09/16 02:01:00;;;;;;;18.52;14.03;;;;;;;14.50;100.00;98619.65;1782234;80;21163;-67
2022/09/16 02:04:36;;;;;;;19.35;14.98;;;;;;;14.44;100.00;98627.08;1814309;79;22662;-68
2022/09/16 02:07:05;;;;;;;21.77;15.28;;;;;;;14.36;100.00;98637.44;1787593;80;21060;-68
2022/09/16 02:09:40;;;;;;;19.12;14.25;;;;;;;14.36;100.00;98633.47;1787548;80;21070;-67
2022/09/16 02:12:12;;;;;;;20.40;15.28;;;;;;;14.37;100.00;98630.33;1787501;80;21489;-68
2022/09/16 02:14:41;;;;;;;19.52;13.65;;;;;;;14.40;100.00;98631.41;1787644;80;21068;-66
2022/09/16 02:17:16;;;;;;;16.50;11.35;;;;;;;14.39;100.00;98630.57;1787654;80;21600;-68
2022/09/16 02:19:48;;;;;;;17.35;14.28;;;;;;;14.42;100.00;98626.38;1787207;80;21561;-67
2022/09/16 02:22:20;;;;;;;17.87;14.25;;;;;;;14.44;100.00;98621.78;1787350;80;21116;-65
2022/09/16 02:24:47;;;;;;;19.52;14.98;;;;;;;14.44;100.00;98608.54;1787289;80;21537;-66
2022/09/16 02:27:16;;;;;;;18.07;14.60;;;;;;;14.44;100.00;98616.48;1787065;80;21560;-68
2022/09/16 02:29:55;;;;;;;18.62;15.05;;;;;;;14.45;100.00;98618.19;1787361;80;21049;-68
2022/09/16 02:32:22;;;;;;;20.50;15.08;;;;;;;14.45;100.00;98625.30;1787416;80;21575;-70
2022/09/16 02:34:50;;;;;;;19.10;14.38;;;;;;;14.46;100.00;98621.19;1787383;80;21083;-68
2022/09/16 02:37:30;;;;;;;19.62;14.50;;;;;;;14.47;100.00;98622.05;1787311;80;21032;-68
2022/09/16 02:40:01;;;;;;;17.87;13.88;;;;;;;14.47;100.00;98626.03;1787584;80;21146;-68
2022/09/16 02:42:28;;;;;;;17.45;14.07;;;;;;;14.45;100.00;98628.78;1787634;80;21089;-67
2022/09/16 02:44:55;;;;;;;16.85;14.45;;;;;;;14.43;100.00;98636.00;1787824;80;21112;-69
2022/09/16 02:47:45;;;;;;;17.92;13.22;;;;;;;14.40;100.00;98638.89;1787389;80;21544;-68
2022/09/16 02:50:28;;;;;;;19.73;15.43;;;;;;;14.37;100.00;98630.33;1787581;80;21025;-68
2022/09/16 02:53:09;;;;;;;18.45;14.10;;;;;;;14.39;100.00;98623.11;1762615;80;21124;-66
2022/09/16 02:55:41;;;;;;;21.10;14.73;;;;;;;14.37;100.00;98633.81;1748723;81;21072;-66
2022/09/16 02:58:08;;;;;;;21.90;16.20;;;;;;;14.34;100.00;98635.87;1745520;82;21046;-66
2022/09/16 03:00:39;;;;;;;17.45;15.03;;;;;;;14.32;100.00;98633.33;1748371;81;21178;-67
2022/09/16 03:03:06;;;;;;;18.98;15.15;;;;;;;14.30;100.00;98643.19;1756243;81;21047;-68
2022/09/16 03:05:33;;;;;;;16.90;14.53;;;;;;;14.28;100.00;98648.59;1756426;81;21046;-68
2022/09/16 03:08:05;;;;;;;17.27;14.00;;;;;;;14.24;100.00;98642.31;1756538;81;21067;-67
2022/09/16 03:10:39;;;;;;;16.15;12.85;;;;;;;14.21;100.00;98639.91;1756725;81;21098;-67
2022/09/16 03:13:18;;;;;;;21.55;13.72;;;;;;;14.21;100.00;98642.56;1729017;81;21203;-65
2022/09/16 03:16:05;;;;;;;18.25;14.38;;;;;;;14.20;100.00;98636.91;1756262;81;21431;-68
2022/09/16 03:19:02;;;;;;;20.82;15.68;;;;;;;14.18;100.00;98640.16;1751761;81;21016;-67
2022/09/16 03:21:49;;;;;;;20.08;14.45;;;;;;;14.15;100.00;98641.69;1755101;81;21051;-67
2022/09/16 03:24:48;;;;;;;21.60;16.07;;;;;;;14.12;100.00;98651.20;1755531;81;21578;-68
2022/09/16 03:27:31;;;;;;;23.27;16.10;;;;;;;14.11;100.00;98653.49;1755654;81;21078;-67
2022/09/16 03:30:05;;;;;;;23.62;16.75;;;;;;;14.09;100.00;98656.73;1756066;81;21094;-67
2022/09/16 03:32:37;;;;;;;19.85;14.93;;;;;;;14.06;100.00;98656.48;1756395;81;21027;-67
2022/09/16 03:35:11;;;;;;;22.65;15.23;;;;;;;14.04;100.00;98657.91;1754617;81;21101;-68
2022/09/16 03:37:39;;;;;;;21.07;16.40;;;;;;;14.02;100.00;98663.80;1756037;81;21070;-68
2022/09/16 03:40:10;;;;;;;20.68;16.17;;;;;;;13.98;100.00;98658.36;1756051;81;21200;-67
2022/09/16 03:42:41;;;;;;;19.05;15.40;;;;;;;13.94;100.00;98660.89;1756263;81;21574;-68
2022/09/16 03:45:15;;;;;;;22.95;14.78;;;;;;;13.92;100.00;98658.84;1756040;81;21011;-67
2022/09/16 03:47:47;;;;;;;17.92;13.10;;;;;;;13.92;100.00;98660.62;1755559;81;21026;-68
2022/09/16 03:50:13;;;;;;;;;;;;;;;13.90;100.00;98656.78;1758708;81;21034;-69
2022/09/16 03:52:40;;;;;;;18.35;14.23;;;;;;;13.89;100.00;98655.08;1755903;81;21771;-68
2022/09/16 03:55:09;;;;;;;16.05;13.28;;;;;;;13.85;100.00;98650.99;1755828;81;21071;-67
2022/09/16 03:57:37;;;;;;;18.87;14.20;;;;;;;13.82;100.00;98646.75;1755816;81;21613;-68
2022/09/16 04:00:06;;;;;;;19.20;16.02;;;;;;;13.82;100.00;98648.55;1755904;81;21023;-68
2022/09/16 04:02:34;;;;;;;22.75;16.32;;;;;;;13.81;100.00;98640.27;1756083;81;27829;-68
2022/09/16 04:05:01;;;;;;;22.27;16.80;;;;;;;13.83;100.00;98637.03;1755709;81;21142;-69
2022/09/16 04:07:27;;;;;;;17.92;13.62;;;;;;;13.85;100.00;98640.41;1755948;81;21134;-67
2022/09/16 04:09:54;;;;;;;18.62;14.95;;;;;;;13.79;100.00;98644.33;1755912;81;21564;-67
2022/09/16 04:12:21;;;;;;;19.10;14.68;;;;;;;13.78;100.00;98643.11;1756025;81;21057;-68
2022/09/16 04:14:47;;;;;;;20.10;14.47;;;;;;;13.78;100.00;98647.08;1756404;81;21042;-67
2022/09/16 04:17:14;;;;;;;25.85;14.45;;;;;;;13.77;100.00;98646.73;1755756;81;21233;-68
2022/09/16 04:19:40;;;;;;;17.15;14.47;;;;;;;13.73;100.00;98656.69;1755819;81;21179;-69
2022/09/16 04:22:07;;;;;;;18.80;13.75;;;;;;;13.72;100.00;98648.88;1755888;81;21030;-69
2022/09/16 04:24:34;;;;;;;22.25;15.23;;;;;;;13.70;100.00;98652.11;1755745;81;21551;-67
2022/09/16 04:27:01;;;;;;;17.50;13.83;;;;;;;13.67;100.00;98653.67;1755790;81;21078;-68
2022/09/16 04:29:28;;;;;;;16.42;13.53;;;;;;;13.66;100.00;98654.13;1755910;81;21260;-68
2022/09/16 04:31:54;;;;;;;17.30;13.78;;;;;;;13.64;100.00;98655.58;1747221;81;21093;-68
2022/09/16 04:34:21;;;;;;;18.35;13.95;;;;;;;13.63;100.00;98673.71;1756028;81;21524;-67
2022/09/16 04:36:47;;;;;;;18.32;13.95;;;;;;;13.62;100.00;98672.04;1756249;81;21141;-68
2022/09/16 04:39:14;;;;;;;16.50;12.18;;;;;;;13.61;100.00;98675.63;1755852;81;21061;-69
2022/09/16 04:41:40;;;;;;;20.23;14.00;;;;;;;13.63;100.00;98681.65;1755994;81;21111;-68
2022/09/16 04:44:09;;;;;;;19.37;13.90;;;;;;;13.60;100.00;98685.85;1755952;81;21022;-67
2022/09/16 04:46:35;;;;;;;17.42;12.90;;;;;;;13.62;100.00;98690.55;1755374;81;21241;-67
2022/09/16 04:49:02;;;;;;;18.92;12.85;;;;;;;13.63;100.00;98702.81;1755969;81;21098;-67
2022/09/16 04:51:31;;;;;;;19.87;15.18;;;;;;;13.62;100.00;98704.27;1755964;81;21057;-67
2022/09/16 04:53:58;;;;;;;20.05;14.30;;;;;;;13.64;100.00;98698.36;1754849;81;21651;-67
2022/09/16 04:56:27;;;;;;;20.92;14.45;;;;;;;13.66;100.00;98706.20;1725776;83;21025;-68
2022/09/16 04:58:57;;;;;;;17.25;13.20;;;;;;;13.69;100.00;98703.31;1726071;83;21116;-68
2022/09/16 05:01:29;;;;;;;20.45;12.95;;;;;;;13.67;100.00;98703.45;1725822;83;21096;-67
2022/09/16 05:04:01;;;;;;;17.23;12.43;;;;;;;13.67;100.00;98706.58;1721357;83;21105;-69
2022/09/16 05:06:32;;;;;;;14.87;11.73;;;;;;;13.69;100.00;98709.93;1712966;83;21130;-68
2022/09/16 05:08:59;;;;;;;18.62;13.13;;;;;;;13.74;100.00;98715.76;1713101;83;21097;-68
2022/09/16 05:11:30;;;;;;;17.98;12.88;;;;;;;13.73;100.00;98707.44;1713024;83;21057;-68
2022/09/16 05:13:58;;;;;;;18.55;13.20;;;;;;;13.74;100.00;98707.82;1712933;83;21624;-68
2022/09/16 05:16:25;;;;;;;16.07;12.85;;;;;;;13.80;100.00;98712.64;1713337;83;21065;-68
2022/09/16 05:18:55;;;;;;;15.65;11.65;;;;;;;13.87;100.00;98711.23;1712770;83;21173;-69
2022/09/16 05:21:24;;;;;;;14.63;11.90;;;;;;;13.89;100.00;98710.65;1712952;83;21061;-69
2022/09/16 05:23:50;;;;;;;15.32;11.35;;;;;;;13.92;100.00;98722.81;1712996;83;21093;-67
2022/09/16 05:26:20;;;;;;;16.20;12.13;;;;;;;13.94;100.00;98724.41;1712916;83;21625;-68
2022/09/16 05:28:47;;;;;;;14.10;11.03;;;;;;;13.97;100.00;98729.47;1713062;83;21542;-67
2022/09/16 05:31:25;;;;;;;12.78;10.95;;;;;;;14.02;100.00;98722.03;1712930;83;21098;-68
2022/09/16 05:33:58;;;;;;;12.78;10.38;;;;;;;14.08;100.00;98721.20;1712704;83;21081;-68
2022/09/16 05:36:27;;;;;;;14.68;11.55;;;;;;;14.20;100.00;98721.64;1712875;83;21073;-68
2022/09/16 05:38:53;;;;;;;13.08;9.88;;;;;;;14.28;100.00;98712.14;1712775;83;21116;-68
2022/09/16 05:41:20;;;;;;;12.45;9.48;;;;;;;14.42;100.00;98711.14;1713199;83;21113;-69
2022/09/16 05:43:46;;;;;;;12.70;9.83;;;;;;;14.50;100.00;98715.01;1713032;83;21815;-67
2022/09/16 05:46:21;;;;;;;11.12;9.35;;;;;;;14.59;100.00;98719.64;1713150;83;21547;-68
2022/09/16 05:48:49;;;;;;;11.75;8.98;;;;;;;14.68;100.00;98717.61;1712975;83;21613;-69
2022/09/16 05:51:18;;;;;;;10.70;8.50;;;;;;;14.78;100.00;98717.75;1712932;83;21579;-69
2022/09/16 05:53:45;;;;;;;14.45;9.45;;;;;;;14.84;100.00;98723.42;1712707;83;22277;-69
2022/09/16 05:56:17;;;;;;;11.30;9.43;;;;;;;14.90;100.00;98724.25;1741088;82;21121;-69
2022/09/16 05:58:44;;;;;;;10.40;8.18;;;;;;;14.93;100.00;98727.63;1742303;82;21059;-69
2022/09/16 06:01:17;;;;;;;11.38;8.13;;;;;;;14.94;100.00;98722.71;1742491;82;21099;-68
2022/09/16 06:03:46;;;;;;;10.63;8.58;;;;;;;14.97;100.00;98730.41;1742215;82;21210;-68
2022/09/16 06:06:31;;;;;;;9.45;8.03;;;;;;;14.99;100.00;98736.45;1742294;82;21019;-68
2022/09/16 06:09:06;;;;;;;9.63;7.97;;;;;;;15.02;100.00;98733.55;1742210;82;21895;-69
2022/09/16 06:11:37;;;;;;;10.05;8.35;;;;;;;15.07;100.00;98736.71;1742209;82;21170;-68
2022/09/16 06:14:04;;;;;;;;;;;;;;;15.12;100.00;98745.14;1744075;82;21051;-69
2022/09/16 06:16:31;;;;;;;11.20;9.23;;;;;;;15.18;100.00;98740.66;1742357;82;20203;-68
2022/09/16 06:19:05;;;;;;;10.95;8.93;;;;;;;15.26;100.00;98742.73;1742409;82;21094;-70
2022/09/16 06:21:32;;;;;;;13.62;8.93;;;;;;;15.36;100.00;98742.85;1742286;82;21096;-68
2022/09/16 06:23:59;;;;;;;9.95;8.28;;;;;;;15.40;100.00;98745.14;1742266;82;21051;-69
2022/09/16 06:26:26;;;;;;;10.08;7.90;;;;;;;15.42;100.00;98739.73;1742536;82;21079;-68
2022/09/16 06:28:53;;;;;;;8.78;7.40;;;;;;;15.43;100.00;98740.07;1742378;82;21051;-69
2022/09/16 06:31:23;;;;;;;8.95;7.78;;;;;;;15.45;100.00;98739.47;1742542;82;21094;-67
2022/09/16 06:33:50;;;;;;;9.78;8.25;;;;;;;15.55;100.00;98740.91;1742376;82;21139;-67
2022/09/16 06:36:22;;;;;;;10.08;8.15;;;;;;;15.65;100.00;98744.04;1742505;82;21028;-68
2022/09/16 06:38:49;;;;;;;8.75;7.85;;;;;;;15.64;100.00;98739.68;1742575;82;21047;-69
2022/09/16 06:41:17;;;;;;;9.93;7.90;;;;;;;15.72;100.00;98745.75;1742342;82;21165;-68
2022/09/16 06:43:43;;;;;;;11.93;8.15;;;;;;;15.80;100.00;98759.72;1742505;82;21003;-69
2022/09/16 06:46:17;;;;;;;10.18;7.85;;;;;;;15.86;100.00;98751.28;1742431;82;22043;-68
2022/09/16 06:48:46;;;;;;;9.18;7.50;;;;;;;15.91;100.00;98760.55;1742147;82;21086;-67
2022/09/16 06:51:16;;;;;;;11.48;8.28;;;;;;;16.01;100.00;98758.01;1742579;82;21054;-68
2022/09/16 06:53:43;;;;;;;10.75;8.13;;;;;;;16.07;100.00;98764.13;1742857;82;21023;-69
2022/09/16 06:56:13;;;;;;;9.20;7.50;;;;;;;16.15;100.00;98765.69;1742601;82;21079;-69
2022/09/16 06:58:41;;;;;;;10.00;8.05;;;;;;;16.25;100.00;98766.27;1742872;82;21853;-69
2022/09/16 07:01:14;;;;;;;9.28;7.50;;;;;;;16.35;100.00;98766.69;1742613;82;21572;-68
2022/09/16 07:03:46;;;;;;;10.32;8.03;;;;;;;16.48;100.00;98763.87;1742546;82;21046;-69
2022/09/16 07:06:13;;;;;;;9.60;7.97;;;;;;;16.63;100.00;98760.89;1742587;82;21007;-69
2022/09/16 07:08:41;;;;;;;10.13;7.87;;;;;;;16.77;100.00;98772.53;1742466;82;21069;-67
2022/09/16 07:11:12;;;;;;;8.58;6.65;;;;;;;16.83;100.00;98778.70;1742724;82;21362;-69
2022/09/16 07:13:38;;;;;;;8.83;7.80;;;;;;;16.86;100.00;98782.42;1742844;82;26725;-68
2022/09/16 07:16:09;;;;;;;10.72;7.28;;;;;;;16.86;100.00;98781.09;1742704;82;21019;-68
2022/09/16 07:18:36;;;;;;;11.05;7.78;;;;;;;16.87;100.00;98792.11;1742667;82;21619;-68
2022/09/16 07:21:09;;;;;;;9.00;7.72;;;;;;;16.85;100.00;98788.73;1742772;82;21126;-68
2022/09/16 07:23:37;;;;;;;10.32;7.35;;;;;;;16.83;100.00;98792.00;1742596;82;21190;-68
2022/09/16 07:26:12;;;;;;;9.38;7.58;;;;;;;16.80;100.00;98794.92;1742406;82;21527;-67
2022/09/16 07:28:40;;;;;;;8.58;7.40;;;;;;;16.80;100.00;98792.77;1742505;82;21109;-68
2022/09/16 07:31:10;;;;;;;9.28;7.58;;;;;;;16.82;100.00;98794.31;1742511;82;21055;-68
2022/09/16 07:33:40;;;;;;;9.83;7.65;;;;;;;16.80;100.00;98797.58;1742845;82;21093;-68
2022/09/16 07:36:09;;;;;;;10.32;7.90;;;;;;;16.78;100.00;98798.16;1742599;82;21226;-68
2022/09/16 07:38:37;;;;;;;10.08;7.60;;;;;;;16.84;100.00;98793.70;1742660;82;21016;-68
2022/09/16 07:41:13;;;;;;;13.03;7.72;;;;;;;16.93;100.00;98795.58;1742579;82;21122;-69
2022/09/16 07:43:41;;;;;;;8.03;6.90;;;;;;;17.11;100.00;98794.98;1743001;82;21034;-70
2022/09/16 07:46:09;;;;;;;9.63;6.87;;;;;;;17.35;100.00;98796.87;1742770;82;21075;-68
2022/09/16 07:48:36;;;;;;;11.93;7.17;;;;;;;17.55;100.00;98799.61;1742942;82;21192;-68
2022/09/16 07:51:10;;;;;;;11.08;7.28;;;;;;;17.69;100.00;98793.95;1742708;81;21159;-69
2022/09/16 07:53:37;;;;;;;9.83;7.05;;;;;;;17.88;100.00;98793.69;1742923;82;21024;-69
2022/09/16 07:56:11;;;;;;;8.43;6.80;;;;;;;17.91;100.00;98796.07;1742589;82;21617;-69
2022/09/16 07:58:39;;;;;;;9.50;6.50;;;;;;;18.03;100.00;98792.30;1742806;82;21058;-69
2022/09/16 08:01:07;;;;;;;8.20;6.92;;;;;;;18.22;100.00;98789.69;1742447;82;21111;-69
2022/09/16 08:03:35;;;;;;;12.43;7.53;;;;;;;18.45;100.00;98784.11;1742422;82;21094;-68
2022/09/16 08:06:05;;;;;;;8.33;6.80;;;;;;;18.61;100.00;98784.39;1742092;82;21610;-70
2022/09/16 08:08:32;;;;;;;;;;;;;;;18.78;100.00;98790.86;1745093;82;21043;-69
2022/09/16 08:10:59;;;;;;;11.48;8.33;;;;;;;18.96;100.00;98796.31;1742802;82;20272;-69
2022/09/16 08:13:28;;;;;;;9.28;6.58;;;;;;;19.15;100.00;98789.27;1742595;82;21511;-69
2022/09/16 08:15:57;;;;;;;9.78;6.65;;;;;;;19.32;100.00;98797.84;1742738;82;21047;-70
2022/09/16 08:18:25;;;;;;;9.18;6.30;;;;;;;19.48;100.00;98795.39;1743022;82;25708;-69
2022/09/16 08:20:51;;;;;;;8.55;5.97;;;;;;;19.49;100.00;98793.09;1742818;82;21595;-69
2022/09/16 08:23:19;;;;;;;9.15;6.10;;;;;;;19.57;100.00;98794.18;1742544;82;21043;-67
2022/09/16 08:25:46;;;;;;;8.35;6.05;;;;;;;19.69;100.00;98786.34;1742398;82;21138;-69
2022/09/16 08:28:14;;;;;;;10.20;6.60;;;;;;;19.77;100.00;98790.47;1742816;82;21030;-69
2022/09/16 08:30:42;;;;;;;7.03;5.72;;;;;;;19.80;100.00;98786.16;1742478;82;21047;-69
2022/09/16 08:33:08;;;;;;;9.00;5.50;;;;;;;19.86;100.00;98786.08;1742678;82;21098;-68
2022/09/16 08:35:36;;;;;;;10.45;6.10;;;;;;;20.08;100.00;98786.14;1742635;82;21567;-69
2022/09/16 08:38:02;;;;;;;7.20;5.60;;;;;;;20.36;100.00;98784.76;1742797;82;21801;-69
2022/09/16 08:40:33;;;;;;;11.38;5.83;;;;;;;20.62;100.00;98784.38;1742549;82;21051;-68
2022/09/16 08:43:21;;;;;;;9.58;5.85;;;;;;;20.89;100.00;98782.11;1742912;82;25770;-69
2022/09/16 08:46:10;;;;;;;8.48;5.80;;;;;;;21.05;100.00;98786.74;1735782;82;21028;-69
2022/09/16 08:49:18;;;;;;;9.28;5.47;;;;;;;21.30;100.00;98778.85;1743037;82;21123;-68
2022/09/16 08:51:45;;;;;;;10.43;5.33;;;;;;;22.06;100.00;98774.53;1742526;81;21153;-69
2022/09/16 08:54:34;;;;;;;8.65;4.62;;;;;;;22.90;94.83;98764.61;1742528;82;21039;-69
2022/09/16 08:57:03;;;;;;;7.47;4.53;;;;;;;23.57;86.74;98778.59;1742584;82;21087;-69
2022/09/16 08:59:38;;;;;;;10.72;4.28;;;;;;;24.26;79.09;98769.90;1742656;82;21090;-69
2022/09/16 09:02:39;;;;;;;8.00;4.25;;;;;;;24.70;77.79;98776.83;1742519;82;21059;-70
2022/09/16 09:05:29;;;;;;;10.55;5.10;;;;;;;24.99;74.41;98770.39;1742355;82;21195;-69
2022/09/16 09:08:17;;;;;;;5.78;3.80;;;;;;;25.07;75.93;98775.69;1742656;82;21047;-69
2022/09/16 09:10:51;;;;;;;6.37;3.67;;;;;;;25.15;74.96;98775.62;1742540;82;21044;-70
2022/09/16 09:13:50;;;;;;;8.10;4.22;;;;;;;24.96;73.05;98778.33;1742622;82;21007;-69
2022/09/16 09:16:30;;;;;;;6.55;4.05;;;;;;;24.75;73.57;98770.08;1742690;82;20984;-69
2022/09/16 09:19:28;;;;;;;9.15;4.33;;;;;;;24.81;72.65;98772.05;1742602;82;21219;-69
2022/09/16 09:22:09;;;;;;;5.37;3.58;;;;;;;25.19;65.85;98769.37;1742397;82;21484;-68
2022/09/16 09:25:14;;;;;;;6.10;3.37;;;;;;;25.59;62.85;98761.88;1742272;82;21110;-69
2022/09/16 09:28:26;;;;;;;6.47;3.83;;;;;;;26.00;59.29;98763.58;1742346;82;21023;-69
2022/09/16 09:31:09;;;;;;;8.03;3.52;;;;;;;26.18;58.94;98762.30;1742550;82;21114;-69
2022/09/16 09:33:41;;;;;;;7.05;3.95;;;;;;;26.23;60.16;98759.89;1742666;82;21111;-69
2022/09/16 09:36:37;;;;;;;6.83;3.72;;;;;;;26.66;56.72;98759.92;1742394;82;21051;-69
2022/09/16 09:39:41;;;;;;;7.35;4.00;;;;;;;26.86;55.89;98762.80;1742447;82;22041;-68
2022/09/16 09:42:21;;;;;;;8.80;4.03;;;;;;;26.96;50.07;98765.50;1742494;82;21047;-70
2022/09/16 09:45:17;;;;;;;7.20;3.90;;;;;;;26.99;49.29;98761.05;1742276;82;21046;-69
2022/09/16 09:48:16;;;;;;;5.87;3.87;;;;;;;26.97;49.79;98768.51;1742429;82;21123;-69
2022/09/16 09:50:46;;;;;;;8.73;4.00;;;;;;;27.02;49.45;98765.74;1742784;82;21042;-69
2022/09/16 09:53:38;;;;;;;5.57;3.80;;;;;;;27.09;49.73;98762.56;1742554;82;21027;-70
2022/09/16 09:56:19;;;;;;;7.45;4.00;;;;;;;27.19;48.41;98761.70;1732789;82;21054;-68
2022/09/16 09:59:04;;;;;;;8.30;3.80;;;;;;;27.57;48.48;98762.70;1731280;82;21053;-69
2022/09/16 10:01:30;;;;;;;11.05;4.25;;;;;;;27.81;46.11;98766.27;1723606;82;21128;-69
2022/09/16 10:03:59;;;;;;;8.10;3.90;;;;;;;27.96;46.47;98770.72;1731497;82;21023;-69
2022/09/16 10:06:31;;;;;;;6.30;3.77;;;;;;;28.09;46.77;98769.42;1731559;82;21108;-69
2022/09/16 10:08:59;;;;;;;4.85;3.33;;;;;;;28.07;46.00;98774.20;1731408;82;21570;-70
2022/09/16 10:11:30;;;;;;;7.62;4.30;;;;;;;28.14;44.76;98764.23;1731869;82;21682;-71
2022/09/16 10:14:01;;;;;;;10.55;4.08;;;;;;;28.08;45.37;98769.09;1731928;82;21130;-70
2022/09/16 10:16:36;;;;;;;9.45;4.78;;;;;;;27.97;46.10;98773.73;1731959;82;21502;-69
2022/09/16 10:19:22;;;;;;;6.95;3.90;;;;;;;27.78;45.70;98772.58;1731779;82;21038;-69
2022/09/16 10:21:53;;;;;;;6.30;3.90;;;;;;;27.33;46.85;98771.62;1732152;82;21495;-70
2022/09/16 10:24:39;;;;;;;11.60;4.20;;;;;;;27.14;46.73;98780.38;1731691;82;21093;-70
2022/09/16 10:27:28;;;;;;;6.05;3.90;;;;;;;27.24;47.07;98770.59;1732184;82;22206;-69
2022/09/16 10:30:11;;;;;;;9.70;4.10;;;;;;;27.56;47.47;98763.23;1731725;82;21074;-69
2022/09/16 10:32:58;;;;;;;6.35;3.72;;;;;;;27.57;46.56;98768.11;1732218;82;21026;-70
2022/09/16 10:35:30;;;;;;;7.67;3.45;;;;;;;27.51;45.96;98773.78;1731930;82;21018;-69
2022/09/16 10:38:04;;;;;;;6.97;3.83;;;;;;;27.52;46.21;98782.75;1731062;82;21030;-69
2022/09/16 10:40:31;;;;;;;6.08;3.75;;;;;;;27.69;44.81;98774.61;1731823;82;21243;-69
2022/09/16 10:43:03;;;;;;;9.70;3.85;;;;;;;27.81;45.01;98775.73;1732261;82;21147;-69
2022/09/16 10:45:35;;;;;;;7.75;3.55;;;;;;;27.37;44.46;98768.81;1730923;82;21085;-70
2022/09/16 10:48:12;;;;;;;6.37;3.87;;;;;;;26.90;45.42;98771.67;1732067;82;21055;-69
2022/09/16 10:50:39;;;;;;;5.40;3.25;;;;;;;26.43;47.03;98774.41;1732111;82;21070;-69
2022/09/16 10:53:28;;;;;;;7.80;3.45;;;;;;;26.46;47.06;98776.74;1732016;82;21647;-68
2022/09/16 10:55:59;;;;;;;7.95;3.70;;;;;;;26.57;46.63;98777.62;1745210;82;21154;-69
2022/09/16 10:58:25;;;;;;;8.35;3.75;;;;;;;26.35;45.52;98767.80;1748530;82;21133;-69
2022/09/16 11:01:16;;;;;;;6.78;3.55;;;;;;;25.99;45.59;98780.77;1748101;82;21596;-70
2022/09/16 11:04:24;;;;;;;4.80;3.17;;;;;;;25.57;46.47;98774.19;1747512;82;21019;-69
2022/09/16 11:06:57;;;;;;;5.20;3.62;;;;;;;25.08;47.22;98782.76;1748005;81;21342;-69
2022/09/16 11:09:49;;;;;;;7.70;3.75;;;;;;;24.74;48.58;98786.75;1746574;82;21042;-71
2022/09/16 11:12:55;;;;;;;10.45;4.25;;;;;;;24.93;47.83;98781.87;1747791;82;21041;-70
2022/09/16 11:15:30;;;;;;;8.00;3.83;;;;;;;25.17;48.83;98772.23;1747859;82;21097;-69
2022/09/16 11:18:20;;;;;;;6.15;4.05;;;;;;;25.54;47.54;98769.17;1748017;82;21033;-69
2022/09/16 11:21:20;;;;;;;7.13;4.30;;;;;;;25.87;47.04;98766.11;1748211;82;21650;-69
2022/09/16 11:24:13;;;;;;;7.37;3.47;;;;;;;25.74;46.78;98771.63;1740703;82;21478;-69
2022/09/16 11:27:00;;;;;;;6.10;3.80;;;;;;;25.46;48.06;98777.34;1606903;88;21676;-69
2022/09/16 11:30:01;;;;;;;6.25;3.50;;;;;;;25.31;49.05;98783.56;1747472;82;21077;-68
2022/09/16 11:32:39;;;;;;;6.22;3.95;;;;;;;25.06;49.61;98782.10;1747984;82;21112;-70
2022/09/16 11:35:33;;;;;;;6.58;4.03;;;;;;;24.83;49.66;98785.66;1708410;82;21642;-69
2022/09/16 11:38:37;;;;;;;5.97;3.65;;;;;;;24.77;50.07;98795.80;1747979;82;21660;-69
2022/09/16 11:41:21;;;;;;;7.45;3.35;;;;;;;25.00;48.99;98791.73;1747967;82;21001;-69
2022/09/16 11:43:59;;;;;;;5.62;3.50;;;;;;;25.03;47.57;98782.45;1748183;82;21553;-69
2022/09/16 11:46:52;;;;;;;6.12;3.20;;;;;;;25.07;47.55;98786.45;1747955;82;21053;-68
2022/09/16 11:49:33;;;;;;;6.08;3.47;;;;;;;25.04;46.30;98782.79;1748158;82;21128;-69
2022/09/16 11:52:36;;;;;;;5.67;3.77;;;;;;;24.80;47.50;98780.65;1747582;82;21553;-69
2022/09/16 11:55:27;;;;;;;6.45;3.98;;;;;;;24.79;47.88;98777.61;1746179;82;21526;-67
2022/09/16 11:57:59;;;;;;;5.95;3.40;;;;;;;24.64;48.02;98782.09;1747883;82;21045;-68